map of LHSN home
Great Circle Mapper logo
LHSN - Airport
Location
City:  Szolnok, Hungary
Near (Alt.):Rákóczifalva
Name:Opera
ICAO:LHSN

Details
Type:Airport (Aerodrome, Airfield)
Use:Military
Latitude:47°07'22"N (47.122861)
Longitude:20°14'08"E (20.235500)
Datum:WGS 1984
Elevation:322 ft (98 m)
Runways:1
Longest:6562 × 229 ft (2000 × 70 m), paved

Time
Time Zone:UTC+1 (DST+2)
Local Time:

Weather
METAR:LHSN 251545Z 00000MPS CAVOK 09/06 Q1025 NOSIG RMK BLU

Related Locations
Nearby:
Farthest:CHT: 11598 mi / 18666 km
Waitangi [Tuuta], Chatham Islands, NZ

Find:

   beyond  
but within

Other Information
Maps:
NOTAMs:
Links:
Sources:

  
flag of Hungary   

Sectional Chart

Flight Planning
at skyvector.com

Satellite Image

Google Maps Satellite View

 

Copyright © 2004-2014 Karl L. Swartz. All rights reserved.
The Great Circle Mapper name and logo are trademarks of the Great Circle Mapper.
All other trademarks mentioned herein belong to their respective owners.
Please see credits for attibutions and further copyright information.

  Follow gcmap on Facebook Follow gcmap on Twitter

hCard Microformat

Geo Microformat